Terminal Aerodrome Forecast
Issued by NWS

Home | Current Version | Previous Version | Text Only | Print | Product List | Glossary On
Versions: 1 2 3 4 5 6 7 8 9 10 11 12 13
010
FTUS44 KSJT 221126
TAFSOA
TAF
KSOA 221126Z 2212/2312 VRB04KT P6SM SKC
     FM221500 17009KT P6SM FEW090
     FM230200 16006KT P6SM SCT250=

USA.gov is the U.S. government's official web portal to all federal, state and local government web resources and services.